createdAt,value
2019-06-15T00:00:17.912Z,5.50
2019-06-15T00:01:17.879Z,6.80
2019-06-15T00:02:17.867Z,5.80
2019-06-15T00:03:17.848Z,6.30
2019-06-15T00:04:17.851Z,6.40
2019-06-15T00:05:17.819Z,6.30
2019-06-15T00:06:17.813Z,6.40
2019-06-15T00:07:17.786Z,7.00
2019-06-15T00:08:17.781Z,6.70
2019-06-15T00:09:17.763Z,6.60
2019-06-15T00:10:17.752Z,7.20
2019-06-15T00:11:17.727Z,7.50
2019-06-15T00:12:17.713Z,7.40
2019-06-15T00:13:17.693Z,7.80
2019-06-15T00:14:17.676Z,8.30
2019-06-15T00:15:17.665Z,8.50
2019-06-15T00:16:17.657Z,8.90
2019-06-15T00:17:17.631Z,8.40
2019-06-15T00:18:17.618Z,8.60
2019-06-15T00:19:17.600Z,9.60
2019-06-15T00:20:17.586Z,9.30
2019-06-15T00:21:17.571Z,9.70
2019-06-15T00:22:17.552Z,10.20
2019-06-15T00:23:17.544Z,9.90
2019-06-15T00:24:17.521Z,10.20
2019-06-15T00:25:17.506Z,10.10
2019-06-15T00:26:17.494Z,10.90
2019-06-15T00:27:17.483Z,10.90
2019-06-15T00:28:17.457Z,11.00
2019-06-15T00:29:17.447Z,10.50
2019-06-15T00:30:17.431Z,11.20
2019-06-15T00:31:17.416Z,11.60
2019-06-15T00:32:17.396Z,10.30
2019-06-15T00:33:17.378Z,11.30
2019-06-15T00:34:17.371Z,10.80
2019-06-15T00:35:17.352Z,11.10
2019-06-15T00:36:17.332Z,11.30
2019-06-15T00:37:17.320Z,10.90
2019-06-15T00:38:17.299Z,10.80
2019-06-15T00:39:17.283Z,10.90
2019-06-15T00:40:17.274Z,11.00
2019-06-15T00:41:17.252Z,10.90
2019-06-15T00:42:17.236Z,11.60
2019-06-15T00:43:17.219Z,11.10
2019-06-15T00:44:17.202Z,12.10
2019-06-15T00:45:17.186Z,12.20
2019-06-15T00:46:17.171Z,12.90
2019-06-15T00:47:17.156Z,14.30
2019-06-15T00:48:17.142Z,14.20
2019-06-15T00:49:17.130Z,15.20
2019-06-15T00:50:17.106Z,14.90
2019-06-15T00:51:17.098Z,17.00
2019-06-15T00:52:17.078Z,16.30
2019-06-15T00:53:17.058Z,15.30
2019-06-15T00:54:17.042Z,16.70
2019-06-15T00:55:17.033Z,15.30
2019-06-15T00:56:17.014Z,15.20
2019-06-15T00:57:16.993Z,14.40
2019-06-15T00:58:16.978Z,14.60
2019-06-15T00:59:16.976Z,15.80
2019-06-15T01:00:16.962Z,14.60
2019-06-15T01:01:16.934Z,14.10
2019-06-15T01:02:16.910Z,14.30
2019-06-15T01:03:16.900Z,14.70
2019-06-15T01:04:16.887Z,12.90
2019-06-15T01:05:16.863Z,12.40
2019-06-15T01:06:16.845Z,12.90
2019-06-15T01:07:16.829Z,15.10
2019-06-15T01:08:16.817Z,12.90
2019-06-15T01:09:16.809Z,14.50
2019-06-15T01:10:16.783Z,12.70
2019-06-15T01:11:16.769Z,13.00
2019-06-15T01:12:16.762Z,12.50
2019-06-15T01:13:16.733Z,13.00
2019-06-15T01:14:16.717Z,12.60
2019-06-15T01:15:16.700Z,12.50
2019-06-15T01:16:16.688Z,13.70
2019-06-15T01:17:16.671Z,13.30
2019-06-15T01:18:16.656Z,12.60
2019-06-15T01:19:16.634Z,14.10
2019-06-15T01:20:16.619Z,13.90
2019-06-15T01:21:16.600Z,14.50
2019-06-15T01:22:16.585Z,13.30
2019-06-15T01:23:16.571Z,13.70
2019-06-15T01:24:16.560Z,15.10
2019-06-15T01:25:16.539Z,14.20
2019-06-15T01:26:16.520Z,13.20
2019-06-15T01:27:16.504Z,12.70
2019-06-15T01:28:16.491Z,12.80
2019-06-15T01:29:16.477Z,13.30
2019-06-15T01:30:16.453Z,13.60
2019-06-15T01:31:16.439Z,13.20
2019-06-15T01:32:16.442Z,13.70
2019-06-15T01:33:16.410Z,13.20
2019-06-15T01:34:16.388Z,13.40
2019-06-15T01:35:16.369Z,12.90
2019-06-15T01:36:16.353Z,12.80
2019-06-15T01:37:16.337Z,14.30
2019-06-15T01:38:16.324Z,12.90
2019-06-15T01:39:16.307Z,13.40
2019-06-15T01:40:16.291Z,13.50
2019-06-15T01:41:16.278Z,13.80
2019-06-15T01:42:16.260Z,15.40
2019-06-15T01:43:16.244Z,14.50
2019-06-15T01:44:16.228Z,15.80
2019-06-15T01:45:16.207Z,15.80
2019-06-15T01:46:16.191Z,14.80
2019-06-15T01:47:16.177Z,15.80
2019-06-15T01:48:16.162Z,16.40
2019-06-15T01:49:16.141Z,16.40
2019-06-15T01:50:16.131Z,16.80
2019-06-15T01:51:16.110Z,17.00
2019-06-15T01:52:16.092Z,16.20
2019-06-15T01:53:16.078Z,17.10
2019-06-15T01:54:16.067Z,17.30
2019-06-15T01:55:20.886Z,16.40
2019-06-15T01:56:16.027Z,16.50
2019-06-15T01:57:16.028Z,15.60
2019-06-15T01:58:15.998Z,17.40
2019-06-15T01:59:15.976Z,17.70
2019-06-15T02:00:15.960Z,16.10
2019-06-15T02:01:15.952Z,16.70
2019-06-15T02:02:15.929Z,17.10
2019-06-15T02:03:15.915Z,16.90
2019-06-15T02:04:15.893Z,16.20
2019-06-15T02:05:15.876Z,17.30
2019-06-15T02:06:15.860Z,16.40
2019-06-15T02:07:15.850Z,17.70
2019-06-15T02:08:15.826Z,17.70
2019-06-15T02:09:15.807Z,16.90
2019-06-15T02:10:15.792Z,16.90
2019-06-15T02:11:15.775Z,17.00
2019-06-15T02:12:15.775Z,17.60
2019-06-15T02:13:15.745Z,17.90
2019-06-15T02:14:15.726Z,17.40
2019-06-15T02:15:15.716Z,17.50
2019-06-15T02:16:15.693Z,16.60
2019-06-15T02:17:15.687Z,17.40
2019-06-15T02:18:15.674Z,16.90
2019-06-15T02:19:15.651Z,17.10
2019-06-15T02:20:15.660Z,18.30
2019-06-15T02:21:15.668Z,18.80
2019-06-15T02:22:15.596Z,19.30
2019-06-15T02:23:15.578Z,19.30
2019-06-15T02:24:15.559Z,19.40
2019-06-15T02:25:15.548Z,20.40
2019-06-15T02:26:15.524Z,19.60
2019-06-15T02:27:15.511Z,19.60
2019-06-15T02:28:15.500Z,18.80
2019-06-15T02:29:15.481Z,18.50
2019-06-15T02:30:15.465Z,17.70
2019-06-15T02:31:15.440Z,17.90
2019-06-15T02:32:15.424Z,17.80
2019-06-15T02:33:15.410Z,17.30
2019-06-15T02:34:15.389Z,18.10
2019-06-15T02:35:15.380Z,18.30
2019-06-15T02:36:15.356Z,18.20
2019-06-15T02:37:15.343Z,18.50
2019-06-15T02:38:15.322Z,16.50
2019-06-15T02:39:15.306Z,15.90
2019-06-15T02:40:15.291Z,16.70
2019-06-15T02:41:15.274Z,15.70
2019-06-15T02:42:15.255Z,16.40
2019-06-15T02:43:15.237Z,16.10
2019-06-15T02:44:15.223Z,17.00
2019-06-15T02:45:15.204Z,15.60
2019-06-15T02:46:15.187Z,16.80
2019-06-15T02:47:15.170Z,17.00
2019-06-15T02:48:15.152Z,16.70
2019-06-15T02:49:15.135Z,16.80
2019-06-15T02:50:15.120Z,16.00
2019-06-15T02:51:15.102Z,17.60
2019-06-15T02:52:15.086Z,17.30
2019-06-15T02:53:15.067Z,18.10
2019-06-15T02:54:15.050Z,17.60
2019-06-15T02:55:15.042Z,18.50
2019-06-15T02:56:15.018Z,17.70
2019-06-15T02:57:15.002Z,17.90
2019-06-15T02:58:14.984Z,19.00
2019-06-15T02:59:14.967Z,19.00
2019-06-15T03:00:14.950Z,18.10
2019-06-15T03:01:14.934Z,17.40
2019-06-15T03:02:14.920Z,19.10
2019-06-15T03:03:14.899Z,18.20
2019-06-15T03:04:14.883Z,17.90
2019-06-15T03:05:14.867Z,18.00
2019-06-15T03:06:14.853Z,19.30
2019-06-15T03:07:14.883Z,17.80
2019-06-15T03:08:14.820Z,18.20
2019-06-15T03:09:14.800Z,18.00
2019-06-15T03:10:14.781Z,17.80
2019-06-15T03:11:14.765Z,18.90
2019-06-15T03:12:14.749Z,19.10
2019-06-15T03:13:14.739Z,19.60
2019-06-15T03:14:14.727Z,19.00
2019-06-15T03:15:14.702Z,20.10
2019-06-15T03:16:14.682Z,19.00
2019-06-15T03:17:14.665Z,19.90
2019-06-15T03:18:14.653Z,20.70
2019-06-15T03:19:14.635Z,18.50
2019-06-15T03:20:14.616Z,20.30
2019-06-15T03:21:14.599Z,19.50
2019-06-15T03:22:14.591Z,19.20
2019-06-15T03:23:14.567Z,18.70
2019-06-15T03:24:14.570Z,18.10
2019-06-15T03:25:14.550Z,19.50
2019-06-15T03:26:14.519Z,19.30
2019-06-15T03:27:14.501Z,18.90
2019-06-15T03:28:14.487Z,19.00
2019-06-15T03:29:14.466Z,18.90
2019-06-15T03:30:14.454Z,20.10
2019-06-15T03:31:14.435Z,20.30
2019-06-15T03:32:14.425Z,20.00
2019-06-15T03:33:14.403Z,19.50
2019-06-15T03:34:14.384Z,19.80
2019-06-15T03:35:14.374Z,21.40
2019-06-15T03:36:14.431Z,20.90
2019-06-15T03:37:14.339Z,20.90
2019-06-15T03:38:14.326Z,21.30
2019-06-15T03:39:14.302Z,21.00
2019-06-15T03:40:14.296Z,22.10
2019-06-15T03:41:14.270Z,20.80
2019-06-15T03:42:14.251Z,20.60
2019-06-15T03:43:14.235Z,19.90
2019-06-15T03:44:14.221Z,21.10
2019-06-15T03:45:14.207Z,21.90
2019-06-15T03:46:14.188Z,21.90
2019-06-15T03:47:14.174Z,20.50
2019-06-15T03:48:14.210Z,22.20
2019-06-15T03:49:14.137Z,22.90
2019-06-15T03:50:14.122Z,23.20
2019-06-15T03:51:14.110Z,23.50
2019-06-15T03:52:14.090Z,23.00
2019-06-15T03:53:14.073Z,23.90
2019-06-15T03:54:14.054Z,23.50
2019-06-15T03:55:14.035Z,23.10
2019-06-15T03:56:21.578Z,22.00
2019-06-15T03:57:14.004Z,22.60
2019-06-15T03:58:13.988Z,22.40
2019-06-15T03:59:13.979Z,22.60
2019-06-15T04:00:13.952Z,23.80
2019-06-15T04:01:13.934Z,24.00
2019-06-15T04:02:13.920Z,24.90
2019-06-15T04:03:13.903Z,24.60
2019-06-15T04:04:13.886Z,24.60
2019-06-15T04:05:13.872Z,25.00
2019-06-15T04:06:13.852Z,26.60
2019-06-15T04:07:13.838Z,26.00
2019-06-15T04:08:13.818Z,26.10
2019-06-15T04:09:13.817Z,25.10
2019-06-15T04:10:13.786Z,24.50
2019-06-15T04:11:13.770Z,24.70
2019-06-15T04:12:13.752Z,25.60
2019-06-15T04:13:13.738Z,24.40
2019-06-15T04:14:13.722Z,26.00
2019-06-15T04:15:13.703Z,24.70
2019-06-15T04:16:13.686Z,24.90
2019-06-15T04:17:13.696Z,23.50
2019-06-15T04:18:13.653Z,24.30
2019-06-15T04:19:13.637Z,22.90
2019-06-15T04:20:13.621Z,23.30
2019-06-15T04:21:13.604Z,24.20
2019-06-15T04:22:13.594Z,24.30
2019-06-15T04:23:13.567Z,25.10
2019-06-15T04:24:13.555Z,22.60
2019-06-15T04:25:13.536Z,24.20
2019-06-15T04:26:13.523Z,23.40
2019-06-15T04:27:13.560Z,22.70
2019-06-15T04:28:13.489Z,23.70
2019-06-15T04:29:13.467Z,22.80
2019-06-15T04:30:13.452Z,23.80
2019-06-15T04:31:13.448Z,22.70
2019-06-15T04:32:13.420Z,23.80
2019-06-15T04:33:13.406Z,22.80
2019-06-15T04:34:13.385Z,24.10
2019-06-15T04:35:13.373Z,24.10
2019-06-15T04:36:13.351Z,23.20
2019-06-15T04:37:13.339Z,24.40
2019-06-15T04:38:13.319Z,23.60
2019-06-15T04:39:13.306Z,24.70
2019-06-15T04:40:13.287Z,24.50
2019-06-15T04:41:13.280Z,23.90
2019-06-15T04:42:13.259Z,25.30
2019-06-15T04:43:13.239Z,23.00
2019-06-15T04:44:13.225Z,24.80
2019-06-15T04:45:13.204Z,24.90
2019-06-15T04:46:13.192Z,24.70
2019-06-15T04:47:13.171Z,25.00
2019-06-15T04:48:13.155Z,23.90
2019-06-15T04:49:13.142Z,24.00
2019-06-15T04:50:13.125Z,23.30
2019-06-15T04:51:13.125Z,24.30
2019-06-15T04:52:13.115Z,23.20
2019-06-15T04:53:14.883Z,22.50
2019-06-15T04:54:13.055Z,23.30
2019-06-15T04:55:13.039Z,23.40
2019-06-15T04:56:13.022Z,21.50
2019-06-15T04:57:13.006Z,21.70
2019-06-15T04:58:12.989Z,22.60
2019-06-15T04:59:12.972Z,20.90
2019-06-15T05:00:12.969Z,21.90
2019-06-15T05:01:12.947Z,21.80
2019-06-15T05:02:12.931Z,20.70
2019-06-15T05:03:12.907Z,20.00
2019-06-15T05:04:12.896Z,21.40
2019-06-15T05:05:12.877Z,22.30
2019-06-15T05:06:12.861Z,22.20
2019-06-15T05:07:12.840Z,21.50
2019-06-15T05:08:12.827Z,21.20
2019-06-15T05:09:12.877Z,22.50
2019-06-15T05:10:12.812Z,23.40
2019-06-15T05:11:12.788Z,22.60
2019-06-15T05:12:12.776Z,23.90
2019-06-15T05:13:12.746Z,23.50
2019-06-15T05:14:12.729Z,22.20
2019-06-15T05:15:12.710Z,22.30
2019-06-15T05:16:12.700Z,21.70
2019-06-15T05:17:12.686Z,22.60
2019-06-15T05:18:12.660Z,22.00
2019-06-15T05:19:12.653Z,24.30
2019-06-15T05:20:12.629Z,24.50
2019-06-15T05:21:12.617Z,23.40
2019-06-15T05:22:12.607Z,23.90
2019-06-15T05:23:12.585Z,23.20
2019-06-15T05:24:12.562Z,24.60
2019-06-15T05:25:12.548Z,26.40
2019-06-15T05:26:12.530Z,25.20
2019-06-15T05:27:12.514Z,24.30
2019-06-15T05:28:12.499Z,23.70
2019-06-15T05:29:12.483Z,23.40
2019-06-15T05:30:12.471Z,24.30
2019-06-15T05:31:12.451Z,25.20
2019-06-15T05:32:12.442Z,27.50
2019-06-15T05:33:12.415Z,26.10
2019-06-15T05:34:12.400Z,26.50
2019-06-15T05:35:12.494Z,26.10
2019-06-15T05:36:12.371Z,26.00
2019-06-15T05:37:12.349Z,26.40
2019-06-15T05:38:12.335Z,27.20
2019-06-15T05:39:12.315Z,27.20
2019-06-15T05:40:12.299Z,25.90
2019-06-15T05:41:15.031Z,28.30
2019-06-15T05:42:12.266Z,26.00
2019-06-15T05:43:12.276Z,26.20
2019-06-15T05:44:12.244Z,27.20
2019-06-15T05:45:12.215Z,27.30
2019-06-15T05:46:12.203Z,29.10
2019-06-15T05:47:12.184Z,27.30
2019-06-15T05:48:12.170Z,27.20
2019-06-15T05:49:12.150Z,27.40
2019-06-15T05:50:12.136Z,25.60
2019-06-15T05:51:12.116Z,27.10
2019-06-15T05:52:12.111Z,27.50
2019-06-15T05:53:12.082Z,27.40
2019-06-15T05:54:12.067Z,28.40
2019-06-15T05:55:12.057Z,26.80
2019-06-15T05:56:12.038Z,28.10
2019-06-15T05:57:21.115Z,27.40
2019-06-15T05:58:11.999Z,28.70
2019-06-15T05:59:11.984Z,28.30
2019-06-15T06:00:11.986Z,28.20
2019-06-15T06:01:11.962Z,28.50
2019-06-15T06:02:11.938Z,27.90
2019-06-15T06:03:11.919Z,27.70
2019-06-15T06:04:11.908Z,28.30
2019-06-15T06:05:11.886Z,27.80
2019-06-15T06:06:11.869Z,28.90
2019-06-15T06:07:11.850Z,26.80
2019-06-15T06:08:11.833Z,26.00
2019-06-15T06:09:11.817Z,26.80
2019-06-15T06:10:11.816Z,27.50
2019-06-15T06:11:11.791Z,29.00
2019-06-15T06:12:11.773Z,28.80
2019-06-15T06:13:11.763Z,25.60
2019-06-15T06:14:11.741Z,27.70
2019-06-15T06:15:11.720Z,27.20
2019-06-15T06:16:11.706Z,26.80
2019-06-15T06:17:11.692Z,26.00
2019-06-15T06:18:11.669Z,26.70
2019-06-15T06:19:11.665Z,26.30
2019-06-15T06:20:11.633Z,27.30
2019-06-15T06:21:11.619Z,26.60
2019-06-15T06:22:11.603Z,27.20
2019-06-15T06:23:11.580Z,26.50
2019-06-15T06:24:11.579Z,25.70
2019-06-15T06:25:11.549Z,26.10
2019-06-15T06:26:11.540Z,26.60
2019-06-15T06:27:11.516Z,26.00
2019-06-15T06:28:11.503Z,26.30
2019-06-15T06:29:11.480Z,24.70
2019-06-15T06:30:11.472Z,24.30
2019-06-15T06:31:11.460Z,24.20
2019-06-15T06:32:11.431Z,25.50
2019-06-15T06:33:11.416Z,25.10
2019-06-15T06:34:11.403Z,23.70
2019-06-15T06:35:11.382Z,23.50
2019-06-15T06:36:11.365Z,25.10
2019-06-15T06:37:11.347Z,23.60
2019-06-15T06:38:11.331Z,24.60
2019-06-15T06:39:11.314Z,23.80
2019-06-15T06:40:11.302Z,23.40
2019-06-15T06:41:13.467Z,23.20
2019-06-15T06:42:11.265Z,23.60
2019-06-15T06:43:11.249Z,24.40
2019-06-15T06:44:11.231Z,23.90
2019-06-15T06:45:11.212Z,23.80
2019-06-15T06:46:11.197Z,23.10
2019-06-15T06:47:11.181Z,22.80
2019-06-15T06:48:11.163Z,23.00
2019-06-15T06:49:11.146Z,22.90
2019-06-15T06:50:11.129Z,21.00
2019-06-15T06:51:11.120Z,20.80
2019-06-15T06:52:11.098Z,20.80
2019-06-15T06:53:11.078Z,20.50
2019-06-15T06:54:11.066Z,22.00
2019-06-15T06:55:11.050Z,20.50
2019-06-15T06:56:11.038Z,19.30
2019-06-15T06:57:11.012Z,20.60
2019-06-15T06:58:10.995Z,18.80
2019-06-15T06:59:10.981Z,19.30
2019-06-15T07:00:11.002Z,18.10
2019-06-15T07:01:10.952Z,17.60
2019-06-15T07:02:10.928Z,18.20
2019-06-15T07:03:10.915Z,16.50
2019-06-15T07:04:10.913Z,16.80
2019-06-15T07:05:10.881Z,15.50
2019-06-15T07:06:10.861Z,16.20
2019-06-15T07:07:10.844Z,14.10
2019-06-15T07:08:10.832Z,14.10
2019-06-15T07:09:10.813Z,12.50
2019-06-15T07:10:10.796Z,13.70
2019-06-15T07:11:10.782Z,13.30
2019-06-15T07:12:10.762Z,12.60
2019-06-15T07:13:10.748Z,12.00
2019-06-15T07:14:10.732Z,12.00
2019-06-15T07:15:10.714Z,11.30
2019-06-15T07:16:10.697Z,11.10
2019-06-15T07:17:10.678Z,10.50
2019-06-15T07:18:10.668Z,10.20
2019-06-15T07:19:10.650Z,10.20
2019-06-15T07:20:10.630Z,10.20
2019-06-15T07:21:10.620Z,10.30
2019-06-15T07:22:10.603Z,10.10
2019-06-15T07:23:10.588Z,10.20
2019-06-15T07:24:10.562Z,9.80
2019-06-15T07:25:10.550Z,10.60
2019-06-15T07:26:10.528Z,10.30
2019-06-15T07:27:10.513Z,9.40
2019-06-15T07:28:10.503Z,10.40
2019-06-15T07:29:10.479Z,9.50
2019-06-15T07:30:10.698Z,9.60
2019-06-15T07:31:10.446Z,9.70
2019-06-15T07:32:10.431Z,9.70
2019-06-15T07:33:10.413Z,9.10
2019-06-15T07:34:10.397Z,9.70
2019-06-15T07:35:10.384Z,9.90
2019-06-15T07:36:10.364Z,10.00
2019-06-15T07:37:10.350Z,10.10
2019-06-15T07:38:10.336Z,9.90
2019-06-15T07:39:10.358Z,9.70
2019-06-15T07:40:10.297Z,10.10
2019-06-15T07:41:10.293Z,9.70
2019-06-15T07:42:10.270Z,11.10
2019-06-15T07:43:10.249Z,10.10
2019-06-15T07:44:10.229Z,10.10
2019-06-15T07:45:10.211Z,10.90
2019-06-15T07:46:10.200Z,10.80
2019-06-15T07:47:10.185Z,9.50
2019-06-15T07:48:10.163Z,10.20
2019-06-15T07:49:10.145Z,9.60
2019-06-15T07:50:10.133Z,10.10
2019-06-15T07:51:10.120Z,10.40
2019-06-15T07:52:10.102Z,10.90
2019-06-15T07:53:10.078Z,9.70
2019-06-15T07:54:10.060Z,10.30
2019-06-15T07:55:10.052Z,11.10
2019-06-15T07:56:10.032Z,12.10
2019-06-15T07:57:10.023Z,12.00
2019-06-15T07:58:23.603Z,11.90
2019-06-15T07:59:09.979Z,12.30
2019-06-15T08:00:09.966Z,13.30
2019-06-15T08:01:09.955Z,13.20
2019-06-15T08:02:09.945Z,13.60
2019-06-15T08:03:09.911Z,15.10
2019-06-15T08:04:09.897Z,15.50
2019-06-15T08:05:09.885Z,19.80
2019-06-15T08:06:09.861Z,20.00
2019-06-15T08:07:09.843Z,22.50
2019-06-15T08:08:09.826Z,29.10
2019-06-15T08:09:09.810Z,29.80
2019-06-15T08:10:09.807Z,29.50
2019-06-15T08:11:09.779Z,31.80
2019-06-15T08:12:09.766Z,37.30
2019-06-15T08:13:09.746Z,37.50
2019-06-15T08:14:09.727Z,38.60
2019-06-15T08:15:09.708Z,38.70
2019-06-15T08:16:09.703Z,41.10
2019-06-15T08:17:09.674Z,41.10
2019-06-15T08:18:09.901Z,40.40
2019-06-15T08:19:09.639Z,39.90
2019-06-15T08:20:09.648Z,41.10
2019-06-15T08:21:09.630Z,43.20
2019-06-15T08:22:09.589Z,41.20
2019-06-15T08:23:09.574Z,42.90
2019-06-15T08:24:09.556Z,43.10
2019-06-15T08:25:09.538Z,41.30
2019-06-15T08:26:09.523Z,41.00
2019-06-15T08:27:09.508Z,43.50
2019-06-15T08:28:09.486Z,41.70
2019-06-15T08:29:09.471Z,43.10
2019-06-15T08:30:09.452Z,40.80
2019-06-15T08:31:09.434Z,40.90
2019-06-15T08:32:09.420Z,41.50
2019-06-15T08:33:09.406Z,41.10
2019-06-15T08:34:09.386Z,42.80
2019-06-15T08:35:09.370Z,40.90
2019-06-15T08:36:09.355Z,40.30
2019-06-15T08:37:09.350Z,39.40
2019-06-15T08:38:09.315Z,38.40
2019-06-15T08:39:09.313Z,39.00
2019-06-15T08:40:09.283Z,42.40
2019-06-15T08:41:09.276Z,37.60
2019-06-15T08:42:09.250Z,38.20
2019-06-15T08:43:09.246Z,40.00
2019-06-15T08:44:09.222Z,38.10
2019-06-15T08:45:09.191Z,36.90
2019-06-15T08:46:09.174Z,37.80
2019-06-15T08:47:09.160Z,39.30
2019-06-15T08:48:09.149Z,37.70
2019-06-15T08:49:09.125Z,37.10
2019-06-15T08:50:09.106Z,39.10
2019-06-15T08:51:09.099Z,37.20
2019-06-15T08:52:09.078Z,36.60
2019-06-15T08:53:09.055Z,33.80
2019-06-15T08:54:09.038Z,36.40
2019-06-15T08:55:09.027Z,36.30
2019-06-15T08:56:09.007Z,36.20
2019-06-15T08:57:08.995Z,36.50
2019-06-15T08:58:08.977Z,35.20
2019-06-15T08:59:08.961Z,33.20
2019-06-15T09:00:08.947Z,33.60
2019-06-15T09:01:08.926Z,33.10
2019-06-15T09:02:08.904Z,31.80
2019-06-15T09:03:08.888Z,30.90
2019-06-15T09:04:08.885Z,30.40
2019-06-15T09:05:08.856Z,30.40
2019-06-15T09:06:08.836Z,29.50
2019-06-15T09:07:08.824Z,32.30
2019-06-15T09:08:08.811Z,30.70
2019-06-15T09:09:08.790Z,31.40
2019-06-15T09:10:08.766Z,33.40
2019-06-15T09:11:08.768Z,32.10
2019-06-15T09:12:08.733Z,30.60
2019-06-15T09:13:08.733Z,32.20
2019-06-15T09:14:08.713Z,33.20
2019-06-15T09:15:08.686Z,31.00
2019-06-15T09:16:08.667Z,31.10
2019-06-15T09:17:08.651Z,32.10
2019-06-15T09:18:08.636Z,31.80
2019-06-15T09:19:08.613Z,28.90
2019-06-15T09:20:08.599Z,30.00
2019-06-15T09:21:08.584Z,31.60
2019-06-15T09:22:08.565Z,30.70
2019-06-15T09:23:08.548Z,32.70
2019-06-15T09:24:08.537Z,30.40
2019-06-15T09:25:08.517Z,30.70
2019-06-15T09:26:08.496Z,30.30
2019-06-15T09:27:08.481Z,27.50
2019-06-15T09:28:08.461Z,26.50
2019-06-15T09:29:11.590Z,27.10
2019-06-15T09:30:08.428Z,27.30
2019-06-15T09:31:08.410Z,27.30
2019-06-15T09:32:08.401Z,27.10
2019-06-15T09:33:08.382Z,27.30
2019-06-15T09:34:18.427Z,26.40
2019-06-15T09:35:08.374Z,25.30
2019-06-15T09:36:08.331Z,24.70
2019-06-15T09:37:08.313Z,23.30
2019-06-15T09:38:08.293Z,24.40
2019-06-15T09:39:08.302Z,25.40
2019-06-15T09:40:08.263Z,24.50
2019-06-15T09:41:08.276Z,23.60
2019-06-15T09:42:08.229Z,24.00
2019-06-15T09:43:08.222Z,22.70
2019-06-15T09:44:08.409Z,22.90
2019-06-15T09:45:08.192Z,21.90
2019-06-15T09:46:08.193Z,22.50
2019-06-15T09:47:08.146Z,21.90
2019-06-15T09:48:08.129Z,21.10
2019-06-15T09:49:08.115Z,23.60
2019-06-15T09:50:08.106Z,21.10
2019-06-15T09:51:08.079Z,21.80
2019-06-15T09:52:08.081Z,21.70
2019-06-15T09:53:08.054Z,21.00
2019-06-15T09:54:08.035Z,21.30
2019-06-15T09:55:08.014Z,20.80
2019-06-15T09:56:08.004Z,20.10
2019-06-15T09:57:07.981Z,19.80
2019-06-15T09:58:07.966Z,19.60
2019-06-15T09:59:07.960Z,18.70
2019-06-15T10:00:07.950Z,18.30
2019-06-15T10:01:07.918Z,18.80
2019-06-15T10:02:07.922Z,18.90
2019-06-15T10:03:07.888Z,17.90
2019-06-15T10:04:07.879Z,18.40
2019-06-15T10:05:07.854Z,18.20
2019-06-15T10:06:11.751Z,18.10
2019-06-15T10:07:07.825Z,18.80
2019-06-15T10:08:07.804Z,17.30
2019-06-15T10:09:07.807Z,18.70
2019-06-15T10:10:07.775Z,18.60
2019-06-15T10:11:07.753Z,17.70
2019-06-15T10:12:07.737Z,19.50
2019-06-15T10:13:07.733Z,17.30
2019-06-15T10:14:07.701Z,17.20
2019-06-15T10:15:07.692Z,17.50
2019-06-15T10:16:07.706Z,17.60
2019-06-15T10:17:07.658Z,17.80
2019-06-15T10:18:07.639Z,16.80
2019-06-15T10:19:07.621Z,16.80
2019-06-15T10:20:07.615Z,17.60
2019-06-15T10:21:07.593Z,15.10
2019-06-15T10:22:07.572Z,15.50
2019-06-15T10:23:07.559Z,15.00
2019-06-15T10:24:07.538Z,15.50
2019-06-15T10:25:07.521Z,14.60
2019-06-15T10:26:07.513Z,15.60
2019-06-15T10:27:07.489Z,15.10
2019-06-15T10:28:07.474Z,14.50
2019-06-15T10:29:07.455Z,13.50
2019-06-15T10:30:07.445Z,13.90
2019-06-15T10:31:07.424Z,13.20
2019-06-15T10:32:07.411Z,14.10
2019-06-15T10:33:07.389Z,13.20
2019-06-15T10:34:07.374Z,11.30
2019-06-15T10:35:07.359Z,11.10
2019-06-15T10:36:09.647Z,12.10
2019-06-15T10:37:07.327Z,11.10
2019-06-15T10:38:07.308Z,12.60
2019-06-15T10:39:07.291Z,12.30
2019-06-15T10:40:07.315Z,11.10
2019-06-15T10:41:07.259Z,12.00
2019-06-15T10:42:07.250Z,11.30
2019-06-15T10:43:07.228Z,10.50
2019-06-15T10:44:07.210Z,10.70
2019-06-15T10:45:07.199Z,10.00
2019-06-15T10:46:07.184Z,10.10
2019-06-15T10:47:07.162Z,10.70
2019-06-15T10:48:07.151Z,10.40
2019-06-15T10:49:07.128Z,10.60
2019-06-15T10:50:07.121Z,10.80
2019-06-15T10:51:07.105Z,11.60
2019-06-15T10:52:07.089Z,10.60
2019-06-15T10:53:07.065Z,10.40
2019-06-15T10:54:07.052Z,10.50
2019-06-15T10:55:07.029Z,11.40
2019-06-15T10:56:07.023Z,10.90
2019-06-15T10:57:07.010Z,11.10
2019-06-15T10:58:06.989Z,11.80
2019-06-15T10:59:06.971Z,12.60
2019-06-15T11:00:07.019Z,12.70
2019-06-15T11:01:06.936Z,13.60
2019-06-15T11:02:06.927Z,12.40
2019-06-15T11:03:06.904Z,12.90
2019-06-15T11:04:06.888Z,12.40
2019-06-15T11:05:06.868Z,12.90
2019-06-15T11:06:06.850Z,12.90
2019-06-15T11:07:06.847Z,17.00
2019-06-15T11:08:06.836Z,19.10
2019-06-15T11:09:06.808Z,20.60
2019-06-15T11:10:06.805Z,21.70
2019-06-15T11:11:06.766Z,22.50
2019-06-15T11:12:06.790Z,23.10
2019-06-15T11:13:06.743Z,22.80
2019-06-15T11:14:06.726Z,25.20
2019-06-15T11:15:06.701Z,24.80
2019-06-15T11:16:06.692Z,22.30
2019-06-15T11:17:06.662Z,22.00
2019-06-15T11:18:06.651Z,22.50
2019-06-15T11:19:06.632Z,22.60
2019-06-15T11:20:06.614Z,22.30
2019-06-15T11:21:06.606Z,22.30
2019-06-15T11:22:06.619Z,23.30
2019-06-15T11:23:06.574Z,24.00
2019-06-15T11:24:06.547Z,22.80
2019-06-15T11:25:06.530Z,23.90
2019-06-15T11:26:06.523Z,23.30
2019-06-15T11:27:06.581Z,22.70
2019-06-15T11:28:06.483Z,23.60
2019-06-15T11:29:06.462Z,23.00
2019-06-15T11:30:13.480Z,22.80
2019-06-15T11:31:06.429Z,23.30
2019-06-15T11:32:06.420Z,21.90
2019-06-15T11:33:06.394Z,21.10
2019-06-15T11:34:06.388Z,21.00
2019-06-15T11:35:06.364Z,21.40
2019-06-15T11:36:06.354Z,20.80
2019-06-15T11:37:06.615Z,21.60
2019-06-15T11:38:06.306Z,20.00
2019-06-15T11:39:06.299Z,21.10
2019-06-15T11:40:06.280Z,21.00
2019-06-15T11:41:06.260Z,19.20
2019-06-15T11:42:06.248Z,16.10
2019-06-15T11:43:06.236Z,16.50
2019-06-15T11:44:06.208Z,16.30
2019-06-15T11:45:06.195Z,15.70
2019-06-15T11:46:06.180Z,15.00
2019-06-15T11:47:06.156Z,16.00
2019-06-15T11:48:06.139Z,16.70
2019-06-15T11:49:06.126Z,16.70
2019-06-15T11:50:06.120Z,16.70
2019-06-15T11:51:06.089Z,16.70
2019-06-15T11:52:06.074Z,16.10
2019-06-15T11:53:06.061Z,17.10
2019-06-15T11:54:06.053Z,16.30
2019-06-15T11:55:06.031Z,15.90
2019-06-15T11:56:06.020Z,15.20
2019-06-15T11:57:05.993Z,13.90
2019-06-15T11:58:05.979Z,14.30
2019-06-15T11:59:05.968Z,15.20
2019-06-15T12:00:05.954Z,15.50
2019-06-15T12:01:05.931Z,16.10
2019-06-15T12:02:05.920Z,16.30
2019-06-15T12:03:05.917Z,15.70
2019-06-15T12:04:05.885Z,16.40
2019-06-15T12:05:05.868Z,15.90
2019-06-15T12:06:05.848Z,16.10
2019-06-15T12:07:05.831Z,13.60
2019-06-15T12:08:05.832Z,13.10
2019-06-15T12:09:05.801Z,13.70
2019-06-15T12:10:05.782Z,12.50
2019-06-15T12:11:05.773Z,9.30
2019-06-15T12:12:05.753Z,7.30
2019-06-15T12:13:05.736Z,7.00
2019-06-15T12:14:05.790Z,6.10
2019-06-15T12:15:05.727Z,6.70
2019-06-15T12:16:05.701Z,5.80
2019-06-15T12:17:05.671Z,5.10
2019-06-15T12:18:05.659Z,4.90
2019-06-15T12:19:05.641Z,4.50
2019-06-15T12:20:05.648Z,4.80
2019-06-15T12:21:05.615Z,3.80
2019-06-15T12:22:05.600Z,3.60
2019-06-15T12:23:05.579Z,4.20
2019-06-15T12:24:05.577Z,3.80
2019-06-15T12:25:05.550Z,3.70
2019-06-15T12:26:05.537Z,3.60
2019-06-15T12:27:05.515Z,4.10
2019-06-15T12:28:05.499Z,3.70
2019-06-15T12:29:07.778Z,3.60
2019-06-15T12:30:05.481Z,3.50
2019-06-15T12:31:05.452Z,3.40
2019-06-15T12:32:05.435Z,3.60
2019-06-15T12:33:05.421Z,3.50
2019-06-15T12:34:05.403Z,3.90
2019-06-15T12:35:05.386Z,3.50
2019-06-15T12:36:18.359Z,3.40
2019-06-15T12:37:05.488Z,3.80
2019-06-15T12:38:05.339Z,4.00
2019-06-15T12:39:05.328Z,3.80
2019-06-15T12:40:05.306Z,3.60
2019-06-15T12:41:05.290Z,3.70
2019-06-15T12:42:05.286Z,3.60
2019-06-15T12:43:05.258Z,3.70
2019-06-15T12:44:05.249Z,3.30
2019-06-15T12:45:05.228Z,3.50
2019-06-15T12:46:05.220Z,4.10
2019-06-15T12:47:05.199Z,3.90
2019-06-15T12:48:05.181Z,3.80
2019-06-15T12:49:05.183Z,4.30
2019-06-15T12:50:05.147Z,4.60
2019-06-15T12:51:05.132Z,4.80
2019-06-15T12:52:05.124Z,4.80
2019-06-15T12:53:05.101Z,4.60
2019-06-15T12:54:05.094Z,4.60
2019-06-15T12:55:05.069Z,4.40